Time;durP1;ratioP1;P1;durP2;ratioP2;P2;SDS_P1;SDS_P2;PMS_P1;PMS_P2;Temp;Humidity;BMP_temperature;BMP_pressure;BME280_temperature;BME280_humidity;BME280_pressure;Samples;Min_cycle;Max_cycle;Signal;HPM_P1;HPM_P2
2022/10/18 00:00:54;;;;;;;10.47;4.50;;;14.80;99.90;;;;;;5051846;28;20770;-63
2022/10/18 00:03:21;;;;;;;8.00;4.77;;;14.80;99.90;;;;;;5051515;28;20730;-63
2022/10/18 00:05:49;;;;;;;10.00;4.83;;;14.80;99.90;;;;;;5051994;28;20244;-63
2022/10/18 00:08:17;;;;;;;8.13;4.63;;;14.70;99.90;;;;;;5051250;28;20274;-63
2022/10/18 00:10:44;;;;;;;9.07;4.63;;;14.80;99.90;;;;;;5051618;28;20601;-63
2022/10/18 00:13:11;;;;;;;6.13;4.30;;;14.80;99.90;;;;;;5051642;28;20210;-62
2022/10/18 00:15:38;;;;;;;6.20;4.70;;;14.80;99.90;;;;;;5051471;28;20213;-63
2022/10/18 00:18:05;;;;;;;9.37;4.33;;;14.90;99.90;;;;;;5051088;28;20206;-60
2022/10/18 00:20:31;;;;;;;6.73;3.80;;;14.90;99.90;;;;;;5051568;28;20229;-59
2022/10/18 00:23:00;;;;;;;10.53;4.00;;;14.90;99.90;;;;;;5051520;28;20206;-63
2022/10/18 00:25:26;;;;;;;7.47;3.77;;;14.90;99.90;;;;;;5051371;28;20606;-63
2022/10/18 00:27:53;;;;;;;9.90;4.17;;;15.00;99.90;;;;;;5050991;28;20230;-63
2022/10/18 00:30:19;;;;;;;7.83;3.70;;;15.00;99.90;;;;;;5051231;28;20275;-62
2022/10/18 00:32:46;;;;;;;5.27;3.57;;;15.00;99.90;;;;;;5051082;28;20217;-60
2022/10/18 00:35:13;;;;;;;6.53;3.60;;;15.00;99.90;;;;;;5051545;28;20630;-60
2022/10/18 00:37:39;;;;;;;10.13;3.83;;;15.00;99.90;;;;;;5051044;28;20831;-60
2022/10/18 00:40:09;;;;;;;6.77;3.30;;;15.10;99.90;;;;;;5051204;28;20629;-60
2022/10/18 00:42:38;;;;;;;7.93;3.70;;;15.10;99.90;;;;;;5051127;28;20723;-58
2022/10/18 00:45:21;;;;;;;8.60;3.73;;;15.00;99.90;;;;;;5053599;28;20680;-60
2022/10/18 00:47:52;;;;;;;8.90;3.60;;;15.00;99.90;;;;;;5054602;28;20230;-60
2022/10/18 00:50:21;;;;;;;14.13;3.43;;;15.00;99.90;;;;;;5054966;28;20233;-60
2022/10/18 00:52:52;;;;;;;9.83;3.67;;;15.10;99.90;;;;;;5054910;28;20292;-60
2022/10/18 00:55:20;;;;;;;4.20;3.17;;;15.10;99.90;;;;;;5055162;28;20610;-60
2022/10/18 00:57:47;;;;;;;7.83;3.17;;;15.10;99.90;;;;;;5054534;28;20291;-60
2022/10/18 01:00:15;;;;;;;5.40;2.80;;;15.10;99.90;;;;;;5054651;28;20225;-60
2022/10/18 01:02:44;;;;;;;9.93;3.30;;;15.10;99.90;;;;;;5054798;28;20209;-60
2022/10/18 01:05:12;;;;;;;6.13;3.17;;;15.10;99.90;;;;;;5054652;28;20209;-60
2022/10/18 01:08:14;;;;;;;5.63;2.80;;;15.10;99.90;;;;;;5054499;28;20231;-59
2022/10/18 01:10:51;;;;;;;3.47;2.83;;;15.10;99.90;;;;;;5055116;28;20225;-60
2022/10/18 01:13:31;;;;;;;6.50;2.73;;;15.10;99.90;;;;;;5054950;28;20205;-60
2022/10/18 01:16:01;;;;;;;8.30;2.80;;;15.10;99.90;;;;;;5054249;28;20209;-63
2022/10/18 01:18:33;;;;;;;3.87;2.57;;;15.20;99.90;;;;;;5054278;28;20202;-63
2022/10/18 01:21:17;;;;;;;3.13;2.73;;;15.20;99.90;;;;;;5054238;28;20255;-62
2022/10/18 01:24:27;;;;;;;8.70;3.17;;;15.20;99.90;;;;;;5054302;28;20232;-62
2022/10/18 01:27:24;;;;;;;4.70;2.93;;;15.20;99.90;;;;;;5054057;28;20229;-63
2022/10/18 01:30:02;;;;;;;12.63;3.03;;;15.20;99.90;;;;;;5054122;28;20237;-63
2022/10/18 01:32:36;;;;;;;6.87;3.43;;;15.10;99.90;;;;;;5053512;28;20205;-61
2022/10/18 01:35:09;;;;;;;11.23;3.17;;;15.10;99.90;;;;;;5054002;28;20201;-63
2022/10/18 01:37:38;;;;;;;7.47;2.97;;;15.20;99.90;;;;;;5054190;28;20209;-63
2022/10/18 01:40:07;;;;;;;4.83;2.80;;;15.20;99.90;;;;;;5053899;28;20781;-62
2022/10/18 01:42:34;;;;;;;9.80;3.00;;;15.10;99.90;;;;;;5054115;28;20726;-63
2022/10/18 01:45:03;;;;;;;4.63;2.57;;;15.10;99.90;;;;;;5054496;28;20758;-61
2022/10/18 01:47:31;;;;;;;4.47;2.60;;;15.10;99.90;;;;;;5053664;28;20226;-62
2022/10/18 01:49:59;;;;;;;4.60;2.70;;;15.20;99.90;;;;;;5054131;28;20225;-62
2022/10/18 01:52:26;;;;;;;11.60;2.60;;;15.20;99.90;;;;;;5053840;28;20676;-62
2022/10/18 01:54:55;;;;;;;4.37;2.83;;;15.20;99.90;;;;;;5053902;28;20560;-63
2022/10/18 01:57:29;;;;;;;4.77;2.50;;;15.20;99.90;;;;;;5052903;28;20668;-62
2022/10/18 02:00:00;;;;;;;10.20;2.70;;;15.20;99.90;;;;;;5053444;28;20229;-62
2022/10/18 02:02:40;;;;;;;6.07;2.80;;;15.20;99.90;;;;;;5053776;28;20213;-63
2022/10/18 02:05:17;;;;;;;12.10;2.90;;;15.20;99.90;;;;;;5053640;28;20205;-62
2022/10/18 02:07:50;;;;;;;6.00;2.60;;;15.10;99.90;;;;;;5053243;28;20225;-63
2022/10/18 02:10:24;;;;;;;8.70;2.60;;;15.20;99.90;;;;;;5053213;28;20234;-63
2022/10/18 02:12:53;;;;;;;5.40;2.70;;;15.10;99.90;;;;;;5053136;28;20672;-62
2022/10/18 02:15:24;;;;;;;6.40;2.60;;;15.20;99.90;;;;;;5053272;28;20206;-61
2022/10/18 02:17:54;;;;;;;10.03;3.17;;;15.20;99.90;;;;;;5053172;28;20209;-63
2022/10/18 02:20:24;;;;;;;7.97;2.90;;;15.20;99.90;;;;;;5053085;28;20286;-62
2022/10/18 02:22:53;;;;;;;6.37;2.70;;;15.20;99.90;;;;;;5053180;28;20213;-62
2022/10/18 02:25:23;;;;;;;6.47;2.90;;;15.20;99.90;;;;;;5052646;28;20206;-63
2022/10/18 02:27:51;;;;;;;9.50;3.30;;;15.20;99.90;;;;;;5053108;28;20233;-63
2022/10/18 02:30:18;;;;;;;4.73;3.00;;;15.20;99.90;;;;;;5052552;28;20237;-63
2022/10/18 02:32:49;;;;;;;6.27;2.97;;;15.20;99.90;;;;;;5053112;28;20375;-63
2022/10/18 02:35:20;;;;;;;8.33;3.43;;;15.20;99.90;;;;;;5052827;28;20320;-63
2022/10/18 02:37:49;;;;;;;7.23;3.20;;;15.10;99.90;;;;;;5052577;28;20259;-61
2022/10/18 02:40:16;;;;;;;10.27;3.20;;;15.10;99.90;;;;;;5052396;28;20221;-63
2022/10/18 02:42:47;;;;;;;4.63;2.67;;;15.10;99.90;;;;;;5052974;28;20210;-62
2022/10/18 02:45:15;;;;;;;8.97;3.30;;;15.10;99.90;;;;;;5053039;28;20292;-63
2022/10/18 02:47:42;;;;;;;6.07;2.77;;;15.10;99.90;;;;;;5052412;28;20267;-60
2022/10/18 02:50:09;;;;;;;7.83;3.00;;;15.20;99.90;;;;;;5052258;28;20792;-60
2022/10/18 02:52:37;;;;;;;5.23;3.37;;;15.20;99.90;;;;;;5052781;28;20267;-60
2022/10/18 02:55:05;;;;;;;9.70;3.53;;;15.20;99.90;;;;;;5052752;28;20217;-60
2022/10/18 02:57:32;;;;;;;5.07;3.17;;;15.20;99.90;;;;;;5052463;28;20209;-60
2022/10/18 02:59:59;;;;;;;5.80;3.17;;;15.20;99.90;;;;;;5052204;28;20237;-60
2022/10/18 03:02:26;;;;;;;7.87;2.67;;;15.20;99.90;;;;;;5052296;28;20240;-59
2022/10/18 03:04:52;;;;;;;6.50;2.93;;;15.20;99.90;;;;;;5052212;28;20259;-60
2022/10/18 03:07:19;;;;;;;8.67;3.50;;;15.20;99.90;;;;;;5051477;28;20226;-60
2022/10/18 03:09:47;;;;;;;5.60;2.97;;;15.20;99.90;;;;;;5052049;28;20225;-60
2022/10/18 03:12:14;;;;;;;8.97;3.40;;;15.20;99.90;;;;;;5052316;28;20205;-60
2022/10/18 03:14:41;;;;;;;4.23;2.80;;;15.20;99.90;;;;;;5052289;28;20205;-60
2022/10/18 03:17:07;;;;;;;4.87;3.20;;;15.20;99.90;;;;;;5051928;28;20214;-60
2022/10/18 03:19:34;;;;;;;6.80;3.17;;;15.20;99.90;;;;;;5052366;28;20233;-60
2022/10/18 03:22:01;;;;;;;4.10;3.03;;;15.20;99.90;;;;;;5052105;28;20209;-60
2022/10/18 03:24:27;;;;;;;6.17;3.30;;;15.20;99.90;;;;;;5052224;28;20804;-60
2022/10/18 03:26:55;;;;;;;4.37;3.30;;;15.20;99.90;;;;;;5051797;28;20209;-60
2022/10/18 03:29:22;;;;;;;5.83;3.20;;;15.20;99.90;;;;;;5051612;28;20229;-60
2022/10/18 03:31:49;;;;;;;8.13;3.33;;;15.20;99.90;;;;;;5051987;28;20236;-60
2022/10/18 03:34:16;;;;;;;11.33;3.30;;;15.20;99.90;;;;;;5052026;28;20206;-60
2022/10/18 03:36:43;;;;;;;6.83;3.13;;;15.20;99.90;;;;;;5051607;28;20620;-60
2022/10/18 03:39:11;;;;;;;10.67;2.90;;;15.20;99.90;;;;;;5051930;28;20233;-60
2022/10/18 03:41:38;;;;;;;8.87;3.87;;;15.20;99.90;;;;;;5051812;28;20297;-59
2022/10/18 03:44:06;;;;;;;8.13;3.17;;;15.20;99.90;;;;;;5051881;28;20666;-60
2022/10/18 03:46:33;;;;;;;6.03;3.77;;;15.20;99.90;;;;;;5051440;28;20213;-63
2022/10/18 03:48:59;;;;;;;7.87;4.40;;;15.30;99.90;;;;;;5051728;28;20229;-63
2022/10/18 03:51:26;;;;;;;5.77;4.20;;;15.30;99.90;;;;;;5051570;28;20824;-63
2022/10/18 03:53:53;;;;;;;7.03;4.33;;;15.30;99.90;;;;;;5051659;28;20236;-63
2022/10/18 03:56:20;;;;;;;11.40;4.23;;;15.30;99.90;;;;;;5051476;28;20255;-62
2022/10/18 03:58:46;;;;;;;11.33;4.93;;;15.30;99.90;;;;;;5051550;28;20213;-63
2022/10/18 04:01:14;;;;;;;7.97;3.60;;;15.30;99.90;;;;;;5051782;28;20205;-62
2022/10/18 04:03:41;;;;;;;8.10;4.17;;;15.30;99.90;;;;;;5051686;28;20266;-62
2022/10/18 04:06:08;;;;;;;13.47;4.33;;;15.30;99.90;;;;;;5051398;28;20482;-63
2022/10/18 04:08:35;;;;;;;8.17;3.77;;;15.30;99.90;;;;;;5051454;28;20221;-63
2022/10/18 04:11:07;;;;;;;13.83;4.37;;;15.30;99.90;;;;;;5051420;28;20573;-63
2022/10/18 04:13:33;;;;;;;16.20;4.40;;;15.30;99.90;;;;;;5051677;28;20206;-63
2022/10/18 04:16:00;;;;;;;8.90;4.20;;;15.30;99.90;;;;;;5051401;28;20248;-63
2022/10/18 04:18:28;;;;;;;11.93;4.30;;;15.30;99.90;;;;;;5051373;28;20202;-62
2022/10/18 04:20:55;;;;;;;7.57;4.43;;;15.30;99.90;;;;;;5055366;28;20229;-62
2022/10/18 04:23:21;;;;;;;8.10;4.87;;;15.30;99.90;;;;;;5055535;28;20209;-62
2022/10/18 04:25:48;;;;;;;9.13;4.50;;;15.30;99.90;;;;;;5055213;28;20225;-63
2022/10/18 04:28:15;;;;;;;9.97;4.93;;;15.30;99.90;;;;;;5055099;28;20225;-63
2022/10/18 04:30:41;;;;;;;18.30;5.87;;;15.30;99.90;;;;;;5055568;28;20287;-63
2022/10/18 04:33:08;;;;;;;10.10;4.90;;;15.30;99.90;;;;;;5055351;28;20244;-63
2022/10/18 04:35:36;;;;;;;12.87;5.70;;;15.30;99.90;;;;;;5037438;28;20251;-63
2022/10/18 04:38:03;;;;;;;10.40;6.37;;;15.30;99.90;;;;;;5055014;28;20213;-63
2022/10/18 04:40:30;;;;;;;11.40;5.37;;;15.30;99.90;;;;;;5054987;28;20225;-61
2022/10/18 04:42:56;;;;;;;10.63;6.50;;;15.30;99.90;;;;;;5055167;28;20552;-63
2022/10/18 04:45:23;;;;;;;10.80;6.43;;;15.30;99.90;;;;;;5054999;28;20677;-63
2022/10/18 04:47:49;;;;;;;14.77;6.97;;;15.30;99.90;;;;;;5054896;28;20225;-65
2022/10/18 04:50:16;;;;;;;14.83;7.17;;;15.30;99.90;;;;;;5052409;28;20229;-63
2022/10/18 04:52:44;;;;;;;10.83;7.13;;;15.20;99.90;;;;;;5054565;28;20665;-63
2022/10/18 04:55:11;;;;;;;12.30;7.37;;;15.30;99.90;;;;;;5055077;28;20730;-63
2022/10/18 04:57:37;;;;;;;11.07;7.30;;;15.30;99.90;;;;;;5054851;28;20209;-64
2022/10/18 05:00:05;;;;;;;17.63;8.83;;;15.30;99.90;;;;;;5054915;28;20279;-62
2022/10/18 05:02:32;;;;;;;28.20;13.07;;;15.30;99.90;;;;;;5054346;28;20730;-63
2022/10/18 05:04:59;;;;;;;15.17;8.40;;;15.30;99.90;;;;;;5054787;28;20205;-63
2022/10/18 05:07:26;;;;;;;17.60;9.23;;;15.40;99.90;;;;;;5054137;28;20285;-64
2022/10/18 05:09:54;;;;;;;13.90;8.53;;;15.30;99.90;;;;;;5054373;28;20237;-63
2022/10/18 05:12:21;;;;;;;20.53;8.67;;;15.30;99.90;;;;;;5054981;28;20283;-63
2022/10/18 05:14:47;;;;;;;17.93;8.60;;;15.30;99.90;;;;;;5054686;28;20316;-63
2022/10/18 05:17:14;;;;;;;16.23;9.10;;;15.30;99.90;;;;;;5054533;28;20206;-64
2022/10/18 05:19:41;;;;;;;27.43;8.77;;;15.30;99.90;;;;;;5054350;28;20626;-64
2022/10/18 05:22:08;;;;;;;25.60;9.97;;;15.30;99.90;;;;;;5054437;28;20212;-64
2022/10/18 05:24:34;;;;;;;28.70;11.03;;;15.20;99.90;;;;;;5053963;28;20240;-61
2022/10/18 05:27:02;;;;;;;18.10;9.93;;;15.10;99.90;;;;;;5054333;28;20206;-62
2022/10/18 05:29:29;;;;;;;25.37;11.03;;;15.10;99.90;;;;;;5053853;28;20295;-63
2022/10/18 05:31:56;;;;;;;24.97;10.57;;;15.20;99.90;;;;;;5052849;28;20202;-64
2022/10/18 05:34:23;;;;;;;24.03;10.87;;;15.20;99.90;;;;;;5053531;28;20259;-65
2022/10/18 05:36:50;;;;;;;27.30;10.20;;;15.10;99.90;;;;;;5053552;28;20284;-65
2022/10/18 05:39:16;;;;;;;21.87;10.50;;;15.20;99.90;;;;;;5053452;28;20221;-65
2022/10/18 05:41:43;;;;;;;21.77;10.70;;;15.20;99.90;;;;;;5053653;28;20213;-64
2022/10/18 05:44:11;;;;;;;18.87;9.73;;;15.20;99.90;;;;;;5053456;28;20205;-64
2022/10/18 05:46:38;;;;;;;18.77;9.70;;;15.30;99.90;;;;;;5053203;28;20209;-64
2022/10/18 05:49:04;;;;;;;19.17;10.57;;;15.30;99.90;;;;;;5053801;28;20304;-64
2022/10/18 05:51:31;;;;;;;26.13;11.13;;;15.30;99.90;;;;;;5052305;28;20660;-63
2022/10/18 05:53:58;;;;;;;22.13;10.70;;;15.30;99.90;;;;;;5053563;28;20283;-63
2022/10/18 05:56:25;;;;;;;19.07;11.40;;;15.30;99.90;;;;;;5052857;28;20201;-64
2022/10/18 05:58:52;;;;;;;19.53;10.67;;;15.30;99.90;;;;;;5053937;28;20564;-62
2022/10/18 06:01:20;;;;;;;21.77;11.07;;;15.30;99.90;;;;;;5052649;28;20210;-62
2022/10/18 06:03:47;;;;;;;20.90;12.20;;;15.30;99.90;;;;;;5053141;28;20708;-64
2022/10/18 06:06:15;;;;;;;22.53;11.83;;;15.30;99.90;;;;;;5052665;28;20205;-65
2022/10/18 06:08:43;;;;;;;27.17;12.60;;;15.40;99.90;;;;;;5054442;28;20225;-65
2022/10/18 06:11:14;;;;;;;28.90;14.00;;;15.40;99.90;;;;;;5052605;28;20204;-62
2022/10/18 06:13:41;;;;;;;26.70;13.27;;;15.40;99.90;;;;;;5053364;28;20668;-63
2022/10/18 06:16:09;;;;;;;27.67;13.03;;;15.40;99.90;;;;;;5053230;28;20299;-63
2022/10/18 06:18:37;;;;;;;28.87;13.33;;;15.30;99.90;;;;;;5052579;28;20205;-62
2022/10/18 06:21:04;;;;;;;24.93;12.97;;;15.30;99.90;;;;;;5052929;28;20216;-61
2022/10/18 06:23:31;;;;;;;28.40;13.80;;;15.30;99.90;;;;;;5052545;28;20605;-62
2022/10/18 06:26:02;;;;;;;24.77;12.83;;;15.40;99.90;;;;;;5047138;28;20606;-61
2022/10/18 06:28:29;;;;;;;21.13;10.20;;;15.40;99.90;;;;;;5046970;28;20218;-67
2022/10/18 06:30:56;;;;;;;28.60;12.97;;;15.40;99.90;;;;;;5051871;28;20692;-67
2022/10/18 06:33:23;;;;;;;33.87;13.60;;;15.50;99.90;;;;;;5051755;28;20209;-67
2022/10/18 06:35:58;;;;;;;25.20;12.47;;;15.50;99.90;;;;;;5052296;28;20209;-67
2022/10/18 06:38:25;;;;;;;27.47;12.67;;;15.60;99.90;;;;;;5051348;28;20208;-67
2022/10/18 06:40:52;;;;;;;28.17;13.57;;;15.60;99.90;;;;;;5051946;28;20233;-62
2022/10/18 06:43:19;;;;;;;27.10;13.23;;;15.60;99.90;;;;;;5051900;28;20213;-63
2022/10/18 06:45:46;;;;;;;28.37;13.37;;;15.70;99.90;;;;;;5050688;28;20280;-65
2022/10/18 06:48:12;;;;;;;28.17;13.93;;;15.60;99.90;;;;;;5051660;28;20209;-64
2022/10/18 06:50:39;;;;;;;30.00;12.23;;;15.60;99.90;;;;;;5051398;28;20233;-64
2022/10/18 06:53:08;;;;;;;27.20;11.73;;;15.50;99.90;;;;;;5052165;28;20201;-64
2022/10/18 06:55:35;;;;;;;24.47;13.00;;;15.50;99.90;;;;;;5051248;28;20216;-62
2022/10/18 06:58:02;;;;;;;21.53;12.57;;;15.50;99.90;;;;;;5051687;28;20210;-62
2022/10/18 07:00:28;;;;;;;26.13;11.80;;;15.50;99.90;;;;;;5051670;28;20785;-61
2022/10/18 07:02:56;;;;;;;22.33;12.90;;;15.60;99.90;;;;;;5051739;28;20279;-62
2022/10/18 07:05:23;;;;;;;26.80;12.50;;;15.60;99.90;;;;;;5051471;28;20209;-62
2022/10/18 07:07:50;;;;;;;23.87;12.80;;;15.50;99.90;;;;;;5050897;28;20255;-63
2022/10/18 07:10:18;;;;;;;29.13;13.67;;;15.50;99.90;;;;;;5051614;28;20229;-63
2022/10/18 07:12:44;;;;;;;25.20;12.17;;;15.40;99.90;;;;;;5050852;28;20210;-63
2022/10/18 07:15:11;;;;;;;24.67;12.90;;;15.40;99.90;;;;;;5051927;28;20209;-62
2022/10/18 07:17:38;;;;;;;24.63;13.57;;;15.40;99.90;;;;;;5050826;28;20209;-63
2022/10/18 07:20:05;;;;;;;25.20;13.63;;;15.40;99.90;;;;;;5051519;28;20338;-63
2022/10/18 07:22:32;;;;;;;24.43;12.73;;;15.50;99.90;;;;;;5051300;28;20236;-64
2022/10/18 07:24:59;;;;;;;27.50;13.17;;;15.50;99.90;;;;;;5051162;28;20684;-64
2022/10/18 07:27:27;;;;;;;26.33;13.57;;;15.60;99.90;;;;;;5051095;28;20210;-63
2022/10/18 07:29:54;;;;;;;30.90;13.93;;;15.60;99.90;;;;;;5050589;28;20230;-65
2022/10/18 07:32:21;;;;;;;28.00;13.50;;;15.60;99.90;;;;;;5051391;28;20209;-65
2022/10/18 07:34:47;;;;;;;31.53;14.10;;;15.60;99.90;;;;;;5050833;28;20215;-64
2022/10/18 07:37:14;;;;;;;25.37;13.93;;;15.60;99.90;;;;;;5050864;28;20240;-64
2022/10/18 07:39:41;;;;;;;26.83;14.13;;;15.60;99.90;;;;;;5050138;28;20275;-64
2022/10/18 07:42:07;;;;;;;25.63;14.77;;;15.70;99.90;;;;;;5051425;28;20221;-64
2022/10/18 07:44:35;;;;;;;29.70;15.07;;;15.70;99.90;;;;;;5051170;28;20255;-63
2022/10/18 07:47:02;;;;;;;31.50;15.53;;;15.70;99.90;;;;;;5050357;28;20205;-62
2022/10/18 07:49:29;;;;;;;29.63;15.33;;;15.70;99.90;;;;;;5047142;28;20719;-61
2022/10/18 07:51:55;;;;;;;27.77;14.33;;;15.70;99.90;;;;;;5049764;28;20263;-64
2022/10/18 07:54:22;;;;;;;29.27;14.50;;;15.70;99.90;;;;;;5049391;28;20209;-60
2022/10/18 07:56:49;;;;;;;27.33;15.00;;;15.80;99.90;;;;;;5050951;28;20243;-61
2022/10/18 07:59:15;;;;;;;32.67;17.17;;;15.80;99.90;;;;;;5051862;28;20228;-65
2022/10/18 08:01:43;;;;;;;37.13;17.27;;;15.90;99.90;;;;;;5051618;28;20214;-64
2022/10/18 08:04:10;;;;;;;41.73;18.60;;;15.90;99.90;;;;;;5051265;28;20201;-64
2022/10/18 08:06:37;;;;;;;45.40;19.73;;;15.90;99.90;;;;;;5050689;28;20212;-64
2022/10/18 08:09:04;;;;;;;42.90;19.90;;;15.80;99.90;;;;;;5050551;28;20225;-64
2022/10/18 08:11:31;;;;;;;41.53;19.90;;;15.90;99.90;;;;;;5051222;28;20213;-63
2022/10/18 08:13:58;;;;;;;44.53;19.17;;;15.80;99.90;;;;;;5050627;28;20215;-63
2022/10/18 08:16:26;;;;;;;41.67;18.10;;;15.90;99.90;;;;;;5051060;28;20684;-62
2022/10/18 08:18:56;;;;;;;45.13;18.77;;;15.90;99.90;;;;;;5050544;28;20209;-62
2022/10/18 08:21:23;;;;;;;43.10;19.83;;;15.90;99.90;;;;;;5050351;28;20210;-62
2022/10/18 08:23:50;;;;;;;44.80;20.37;;;15.90;99.90;;;;;;5050803;28;20664;-63
2022/10/18 08:26:19;;;;;;;50.27;20.77;;;15.80;99.90;;;;;;5050329;28;20676;-62
2022/10/18 08:28:46;;;;;;;48.73;20.83;;;15.80;99.90;;;;;;5050383;28;20616;-65
2022/10/18 08:31:16;;;;;;;55.50;22.27;;;15.80;99.90;;;;;;5050119;28;20201;-61
2022/10/18 08:33:43;;;;;;;52.40;23.00;;;15.80;99.90;;;;;;5050592;28;20244;-62
2022/10/18 08:36:13;;;;;;;54.23;23.00;;;15.80;99.90;;;;;;5050201;28;20217;-63
2022/10/18 08:38:42;;;;;;;49.90;22.00;;;15.80;99.90;;;;;;5051045;28;20267;-63
2022/10/18 08:41:26;;;;;;;49.70;22.10;;;15.80;99.90;;;;;;5051615;28;20612;-63
2022/10/18 08:43:58;;;;;;;51.33;22.87;;;15.90;99.90;;;;;;5050979;28;20210;-63
2022/10/18 08:46:25;;;;;;;52.27;23.20;;;15.70;99.90;;;;;;5050208;28;20283;-65
2022/10/18 08:48:55;;;;;;;62.97;23.77;;;15.60;99.90;;;;;;5050542;28;20300;-65
2022/10/18 08:51:29;;;;;;;65.40;27.80;;;15.60;99.90;;;;;;5049316;28;20206;-60
2022/10/18 08:54:02;;;;;;;77.47;30.77;;;15.50;99.90;;;;;;5044653;28;20208;-62
2022/10/18 08:56:29;;;;;;;79.20;29.77;;;15.60;99.90;;;;;;5050471;28;20214;-63
2022/10/18 08:58:56;;;;;;;75.77;30.47;;;15.60;99.90;;;;;;5049634;28;20265;-63
2022/10/18 09:01:31;;;;;;;84.47;30.63;;;15.50;99.90;;;;;;5052081;28;20213;-67
2022/10/18 09:04:14;;;;;;;85.00;31.70;;;15.50;99.90;;;;;;5051304;28;20251;-66
2022/10/18 09:06:48;;;;;;;84.73;31.47;;;15.50;99.90;;;;;;5053871;28;20629;-67
2022/10/18 09:09:28;;;;;;;78.53;31.37;;;15.50;99.90;;;;;;5055031;28;20225;-65
2022/10/18 09:12:02;;;;;;;86.63;33.03;;;15.60;99.90;;;;;;5053860;28;20216;-67
2022/10/18 09:14:49;;;;;;;92.03;34.13;;;15.50;99.90;;;;;;5053420;28;20205;-66
2022/10/18 09:17:27;;;;;;;89.10;34.00;;;15.50;99.90;;;;;;5053276;28;20217;-66
2022/10/18 09:20:05;;;;;;;81.63;33.63;;;15.60;99.90;;;;;;5052891;28;20236;-68
2022/10/18 09:22:43;;;;;;;94.23;34.03;;;15.50;99.90;;;;;;5053966;28;20205;-61
2022/10/18 09:25:18;;;;;;;75.03;30.00;;;15.50;99.90;;;;;;5053450;28;20331;-66
2022/10/18 09:27:51;;;;;;;85.90;30.20;;;15.50;99.90;;;;;;5052643;28;20201;-66
2022/10/18 09:30:36;;;;;;;98.67;34.93;;;15.60;99.90;;;;;;5053181;28;20321;-65
2022/10/18 09:33:15;;;;;;;90.60;33.07;;;15.70;99.90;;;;;;5053468;28;20201;-65
2022/10/18 09:35:49;;;;;;;90.00;33.07;;;15.60;99.90;;;;;;5053763;28;20237;-61
2022/10/18 09:38:22;;;;;;;90.77;34.00;;;15.50;99.90;;;;;;5053594;28;20190;-62
2022/10/18 09:40:54;;;;;;;88.63;32.47;;;15.50;99.90;;;;;;5053667;28;20229;-65
2022/10/18 09:43:24;;;;;;;91.30;34.23;;;15.60;99.90;;;;;;5052918;28;20848;-64
2022/10/18 09:45:53;;;;;;;87.10;34.13;;;15.60;99.90;;;;;;5053250;28;20209;-64
2022/10/18 09:48:23;;;;;;;84.87;33.10;;;15.60;99.90;;;;;;5052685;28;20213;-64
2022/10/18 09:50:56;;;;;;;79.80;32.00;;;15.60;99.90;;;;;;5053066;28;20291;-64
2022/10/18 09:53:34;;;;;;;80.73;32.00;;;15.70;99.90;;;;;;5053179;28;20267;-64
2022/10/18 09:56:05;;;;;;;85.10;34.10;;;15.80;99.90;;;;;;5053242;28;20327;-64
2022/10/18 09:58:41;;;;;;;79.60;32.67;;;15.90;99.90;;;;;;5052998;28;20276;-64
2022/10/18 10:01:10;;;;;;;79.77;34.00;;;16.00;99.90;;;;;;5053938;28;20288;-64
2022/10/18 10:03:36;;;;;;;81.07;32.43;;;16.20;99.90;;;;;;5055185;28;20206;-67
2022/10/18 10:06:16;;;;;;;74.97;33.33;;;16.30;99.90;;;;;;5052747;28;20598;-63
2022/10/18 10:08:48;;;;;;;68.20;31.70;;;16.50;99.90;;;;;;5052907;28;20212;-65
2022/10/18 10:11:37;;;;;;;65.60;30.33;;;16.50;99.90;;;;;;5053073;28;20221;-63
2022/10/18 10:14:14;;;;;;;66.93;30.97;;;16.50;99.90;;;;;;5053729;28;20224;-63
2022/10/18 10:16:48;;;;;;;66.80;32.03;;;16.40;99.90;;;;;;5035134;28;20216;-65
2022/10/18 10:19:20;;;;;;;65.03;30.77;;;16.50;99.90;;;;;;5053530;28;20226;-64
2022/10/18 10:21:49;;;;;;;58.83;29.63;;;16.60;99.90;;;;;;5052212;28;20217;-62
2022/10/18 10:24:25;;;;;;;53.83;27.93;;;16.70;99.90;;;;;;5052555;28;20255;-63
2022/10/18 10:26:59;;;;;;;54.97;27.93;;;16.70;99.90;;;;;;5051689;28;20274;-61
2022/10/18 10:29:56;;;;;;;56.30;28.93;;;16.80;99.90;;;;;;5052549;28;20236;-61
2022/10/18 10:32:29;;;;;;;55.63;28.33;;;16.80;99.90;;;;;;5052346;28;20201;-62
2022/10/18 10:34:56;;;;;;;57.40;29.97;;;16.70;99.90;;;;;;5052184;28;20218;-62
2022/10/18 10:37:32;;;;;;;59.43;29.90;;;16.80;99.90;;;;;;5051821;28;20633;-61
2022/10/18 10:40:19;;;;;;;59.30;28.20;;;17.00;99.90;;;;;;5051938;28;20229;-61
2022/10/18 10:43:04;;;;;;;54.20;28.93;;;17.00;99.90;;;;;;5051524;28;20213;-63
2022/10/18 10:45:35;;;;;;;63.00;31.97;;;17.10;99.90;;;;;;5052211;28;20209;-63
2022/10/18 10:48:14;;;;;;;61.63;31.20;;;17.10;99.90;;;;;;5052208;28;20271;-62
2022/10/18 10:50:51;;;;;;;63.23;32.03;;;17.10;99.90;;;;;;5032969;28;20257;-62
2022/10/18 10:53:28;;;;;;;57.27;29.53;;;17.10;99.90;;;;;;5032287;28;20213;-63
2022/10/18 10:55:57;;;;;;;64.30;30.17;;;17.30;99.90;;;;;;5032128;28;20186;-63
2022/10/18 10:58:26;;;;;;;47.67;25.40;;;17.30;99.90;;;;;;5032182;28;20260;-63
2022/10/18 11:00:53;;;;;;;48.90;25.73;;;17.20;99.90;;;;;;5041984;28;20716;-63
2022/10/18 11:03:22;;;;;;;53.70;28.33;;;17.10;99.90;;;;;;5049797;28;20568;-61
2022/10/18 11:05:51;;;;;;;50.93;26.60;;;17.10;99.90;;;;;;5049391;28;20213;-61
2022/10/18 11:08:20;;;;;;;49.73;26.57;;;17.20;99.90;;;;;;5051330;28;20279;-63
2022/10/18 11:10:57;;;;;;;44.33;25.47;;;17.20;99.90;;;;;;5051127;28;20291;-62
2022/10/18 11:13:34;;;;;;;44.00;25.07;;;17.20;99.90;;;;;;5051269;28;20213;-63
2022/10/18 11:16:07;;;;;;;46.90;24.83;;;17.30;99.90;;;;;;5050679;28;20314;-61
2022/10/18 11:18:36;;;;;;;41.07;24.47;;;17.30;99.90;;;;;;5050097;28;20723;-64
2022/10/18 11:21:07;;;;;;;43.30;24.80;;;17.50;99.90;;;;;;5051305;28;20225;-66
2022/10/18 11:23:37;;;;;;;41.03;22.10;;;17.40;99.90;;;;;;5050913;28;20656;-64
2022/10/18 11:26:20;;;;;;;40.63;23.80;;;17.40;99.90;;;;;;5050858;28;20351;-63
2022/10/18 11:29:04;;;;;;;37.47;23.47;;;17.40;99.90;;;;;;5048663;28;20223;-63
2022/10/18 11:31:39;;;;;;;35.47;22.43;;;17.50;99.90;;;;;;5051205;28;20776;-63
2022/10/18 11:34:21;;;;;;;40.90;23.40;;;17.50;99.90;;;;;;5050304;28;20209;-62
2022/10/18 11:36:57;;;;;;;34.43;21.80;;;17.40;99.90;;;;;;5046518;28;20231;-67
2022/10/18 11:39:31;;;;;;;39.20;21.50;;;17.20;99.90;;;;;;5048668;28;20704;-62
2022/10/18 11:42:09;;;;;;;40.77;21.83;;;17.20;99.90;;;;;;5047034;28;20279;-62
2022/10/18 11:44:42;;;;;;;40.17;22.57;;;17.10;99.90;;;;;;5042618;28;20208;-61
2022/10/18 11:47:16;;;;;;;37.97;23.07;;;17.20;99.90;;;;;;5050512;28;20205;-63
2022/10/18 11:49:59;;;;;;;36.30;20.87;;;17.10;99.90;;;;;;5051197;28;20226;-63
2022/10/18 11:52:33;;;;;;;33.53;21.33;;;17.20;99.90;;;;;;5050862;28;20214;-62
2022/10/18 11:55:12;;;;;;;34.60;19.20;;;17.30;99.90;;;;;;5051444;28;20204;-62
2022/10/18 11:57:46;;;;;;;33.67;19.37;;;17.40;99.90;;;;;;5050956;28;20618;-62
2022/10/18 12:00:27;;;;;;;32.43;17.83;;;17.40;99.90;;;;;;5051075;28;20221;-63
2022/10/18 12:03:12;;;;;;;30.40;17.40;;;17.50;99.90;;;;;;5051646;28;20209;-62
2022/10/18 12:05:43;;;;;;;30.20;16.83;;;17.60;99.90;;;;;;5051354;28;20592;-65
2022/10/18 12:08:14;;;;;;;27.80;18.63;;;17.80;99.90;;;;;;5050988;28;20225;-62
2022/10/18 12:10:44;;;;;;;26.17;17.30;;;17.80;99.90;;;;;;5051081;28;20225;-63
2022/10/18 12:13:16;;;;;;;27.73;16.93;;;17.80;99.90;;;;;;5051493;28;20209;-62
2022/10/18 12:15:44;;;;;;;26.53;16.07;;;17.80;99.90;;;;;;5051529;28;20590;-62
2022/10/18 12:18:15;;;;;;;28.83;17.60;;;17.80;99.90;;;;;;5050197;28;20213;-67
2022/10/18 12:20:46;;;;;;;26.47;16.70;;;17.70;99.90;;;;;;5050521;28;20225;-62
2022/10/18 12:23:16;;;;;;;23.17;14.97;;;17.70;99.90;;;;;;5051378;28;20590;-63
2022/10/18 12:25:47;;;;;;;23.53;14.33;;;17.70;99.90;;;;;;5051069;28;20664;-65
2022/10/18 12:28:23;;;;;;;18.67;12.83;;;17.60;99.90;;;;;;5050923;28;20551;-65
2022/10/18 12:30:57;;;;;;;20.60;12.73;;;17.60;99.90;;;;;;5051176;28;20225;-67
2022/10/18 12:33:28;;;;;;;19.97;12.63;;;17.70;99.90;;;;;;5051213;28;20210;-65
2022/10/18 12:36:05;;;;;;;19.70;12.07;;;17.90;99.90;;;;;;5051050;28;20216;-65
2022/10/18 12:38:35;;;;;;;19.27;12.30;;;17.90;99.90;;;;;;5050550;28;20201;-67
2022/10/18 12:41:04;;;;;;;16.23;10.73;;;17.90;99.90;;;;;;5052753;28;20226;-67
2022/10/18 12:43:36;;;;;;;16.20;9.37;;;17.90;99.90;;;;;;5054794;28;20206;-66
2022/10/18 12:46:05;;;;;;;13.93;8.20;;;17.90;99.90;;;;;;5053998;28;20210;-66
2022/10/18 12:48:37;;;;;;;21.37;10.03;;;17.80;99.90;;;;;;5054378;28;20634;-65